Time;durP1;ratioP1;P1;durP2;ratioP2;P2;SDS_P1;SDS_P2;PMS_P1;PMS_P2;Temp;Humidity;BMP_temperature;BMP_pressure;BME280_temperature;BME280_humidity;BME280_pressure;Samples;Min_cycle;Max_cycle;Signal;HPM_P1;HPM_P2
2022/02/19 00:00:15;;;;;;;0.30;0.20;;;;;;;8.17;63.45;99510.59;4995978;28;20965;-53
2022/02/19 00:02:41;;;;;;;0.30;0.20;;;;;;;8.19;63.56;99526.41;4996464;28;20457;-53
2022/02/19 00:05:09;;;;;;;0.30;0.20;;;;;;;8.15;63.93;99517.72;4996162;28;20870;-53
2022/02/19 00:07:35;;;;;;;0.30;0.20;;;;;;;8.17;64.74;99518.53;4996698;28;20456;-53
2022/02/19 00:10:03;;;;;;;0.30;0.20;;;;;;;8.16;62.00;99518.56;4996229;28;20457;-53
2022/02/19 00:12:30;;;;;;;0.30;0.20;;;;;;;8.17;63.52;99522.94;4996384;28;20456;-53
2022/02/19 00:14:56;;;;;;;0.30;0.20;;;;;;;8.13;62.88;99524.84;4995792;28;21020;-53
2022/02/19 00:17:23;;;;;;;0.30;0.20;;;;;;;8.10;63.98;99519.66;4996192;28;20493;-53
2022/02/19 00:19:50;;;;;;;0.30;0.20;;;;;;;8.02;64.22;99514.56;4995973;28;20513;-53
2022/02/19 00:22:17;;;;;;;0.30;0.20;;;;;;;8.01;64.44;99512.84;4996130;28;20453;-53
2022/02/19 00:24:43;;;;;;;0.30;0.20;;;;;;;8.01;64.99;99518.13;4995776;28;20497;-52
2022/02/19 00:27:11;;;;;;;0.30;0.17;;;;;;;8.01;65.62;99515.50;4995892;28;20453;-53
2022/02/19 00:29:38;;;;;;;0.30;0.10;;;;;;;7.96;65.90;99532.44;4982840;28;20457;-53
2022/02/19 00:32:06;;;;;;;0.30;0.20;;;;;;;7.94;66.15;99534.22;4995290;28;20453;-51
2022/02/19 00:34:32;;;;;;;0.30;0.10;;;;;;;7.95;66.73;99549.22;4995615;28;21083;-52
2022/02/19 00:36:59;;;;;;;0.30;0.20;;;;;;;7.94;66.69;99534.22;4996636;28;20450;-53
2022/02/19 00:39:26;;;;;;;0.30;0.20;;;;;;;8.01;66.28;99570.19;4995782;28;20838;-53
2022/02/19 00:41:53;;;;;;;0.30;0.10;;;;;;;7.98;63.67;99554.41;4995435;28;20446;-53
2022/02/19 00:44:19;;;;;;;0.30;0.10;;;;;;;8.01;63.18;99565.78;4995432;28;20488;-53
2022/02/19 00:46:46;;;;;;;2.50;2.30;;;;;;;8.05;62.28;99573.59;4995051;28;20446;-53
2022/02/19 00:49:13;;;;;;;0.30;0.10;;;;;;;7.99;62.83;99566.72;4995675;28;20782;-53
2022/02/19 00:51:40;;;;;;;0.30;0.20;;;;;;;7.91;63.25;99568.72;4995257;28;20484;-53
2022/02/19 00:54:06;;;;;;;0.30;0.20;;;;;;;7.91;62.90;99581.97;4995518;28;20504;-53
2022/02/19 00:56:33;;;;;;;0.30;0.20;;;;;;;8.01;61.49;99586.06;4995203;28;20446;-53
2022/02/19 00:58:59;;;;;;;0.30;0.20;;;;;;;8.05;62.46;99586.84;4995250;28;20523;-53
2022/02/19 01:01:26;;;;;;;0.30;0.10;;;;;;;7.95;62.88;99581.84;4994826;28;20874;-51
2022/02/19 01:03:53;;;;;;;0.30;0.10;;;;;;;7.94;61.90;99597.75;4995139;28;20955;-53
2022/02/19 01:06:20;;;;;;;0.47;0.47;;;;;;;7.90;61.53;99610.19;4994804;28;20999;-53
2022/02/19 01:08:49;;;;;;;0.30;0.20;;;;;;;7.92;60.44;99599.56;4994974;28;20515;-53
2022/02/19 01:11:16;;;;;;;0.30;0.10;;;;;;;7.95;62.56;99599.50;4994879;28;20457;-53
2022/02/19 01:13:43;;;;;;;0.30;0.20;;;;;;;7.93;60.49;99618.03;4995028;28;20450;-53
2022/02/19 01:16:10;;;;;;;33.97;2.00;;;;;;;7.92;60.44;99610.16;4995188;28;20810;-53
2022/02/19 01:18:36;;;;;;;0.30;0.20;;;;;;;7.85;61.67;99635.94;4994928;28;20492;-53
2022/02/19 01:21:03;;;;;;;0.30;0.20;;;;;;;7.88;61.01;99635.84;4994951;28;20963;-53
2022/02/19 01:23:30;;;;;;;0.30;0.20;;;;;;;7.85;61.32;99616.53;4994405;28;20870;-53
2022/02/19 01:25:56;;;;;;;0.30;0.10;;;;;;;7.86;61.13;99623.56;4994493;28;20500;-52
2022/02/19 01:28:23;;;;;;;0.30;0.17;;;;;;;7.77;61.69;99627.31;4994708;28;20489;-53
2022/02/19 01:30:50;;;;;;;0.30;0.20;;;;;;;7.77;60.71;99629.97;4994504;28;20811;-53
2022/02/19 01:33:16;;;;;;;0.30;0.20;;;;;;;7.71;61.38;99624.88;4994698;28;20527;-53
2022/02/19 01:35:43;;;;;;;0.30;0.17;;;;;;;7.75;60.62;99634.44;4994354;28;20528;-53
2022/02/19 01:38:09;;;;;;;0.30;0.20;;;;;;;7.80;60.08;99639.59;4994365;28;20484;-53
2022/02/19 01:40:38;;;;;;;0.30;0.20;;;;;;;7.75;60.93;99636.22;4994297;28;20527;-54
2022/02/19 01:43:04;;;;;;;0.30;0.10;;;;;;;7.73;60.66;99634.50;4994409;28;20503;-53
2022/02/19 01:45:31;;;;;;;0.30;0.20;;;;;;;7.70;60.64;99646.94;4993891;28;20864;-54
2022/02/19 01:47:57;;;;;;;0.30;0.20;;;;;;;7.71;61.61;99649.53;4994587;28;20454;-53
2022/02/19 01:50:24;;;;;;;0.30;0.10;;;;;;;7.68;61.13;99649.63;4994297;28;20480;-54
2022/02/19 01:52:51;;;;;;;0.30;0.10;;;;;;;7.68;60.76;99652.28;4994013;28;20515;-54
2022/02/19 01:55:17;;;;;;;0.30;0.10;;;;;;;7.69;60.65;99647.84;4994013;28;21042;-54
2022/02/19 01:57:44;;;;;;;0.30;0.20;;;;;;;7.67;61.10;99655.81;4994048;28;20449;-54
2022/02/19 02:00:13;;;;;;;0.30;0.20;;;;;;;7.70;60.66;99644.28;4994202;28;20453;-53
2022/02/19 02:02:43;;;;;;;0.30;0.20;;;;;;;7.67;61.47;99653.16;4994074;28;20512;-54
2022/02/19 02:05:10;;;;;;;0.30;0.20;;;;;;;7.71;61.63;99670.69;4993554;28;20532;-55
2022/02/19 02:07:36;;;;;;;0.30;0.10;;;;;;;7.68;60.73;99657.56;4993837;28;20882;-54
2022/02/19 02:10:04;;;;;;;0.30;0.20;;;;;;;7.71;61.94;99676.00;4993621;28;20963;-54
2022/02/19 02:12:32;;;;;;;0.27;0.20;;;;;;;7.67;62.87;99666.38;4993764;28;20516;-55
2022/02/19 02:14:59;;;;;;;0.30;0.17;;;;;;;7.69;62.29;99663.72;4993859;28;20466;-56
2022/02/19 02:17:25;;;;;;;0.30;0.10;;;;;;;7.67;61.84;99679.59;4993881;28;20450;-56
2022/02/19 02:19:52;;;;;;;0.30;0.20;;;;;;;7.61;62.04;99663.03;4992822;28;20489;-56
2022/02/19 02:22:18;;;;;;;0.30;0.20;;;;;;;7.60;61.27;99670.13;4993429;28;20488;-56
2022/02/19 02:24:47;;;;;;;0.30;0.20;;;;;;;7.67;61.00;99684.91;4993389;28;20500;-55
2022/02/19 02:27:14;;;;;;;0.30;0.10;;;;;;;7.62;60.27;99685.94;4993870;28;20531;-55
2022/02/19 02:29:46;;;;;;;0.30;0.20;;;;;;;7.61;61.15;99685.06;4993618;28;20541;-55
2022/02/19 02:32:14;;;;;;;0.30;0.10;;;;;;;7.60;61.64;99680.69;4993555;28;20450;-55
2022/02/19 02:34:51;;;;;;;0.30;0.20;;;;;;;7.66;61.06;99700.81;4992946;28;20540;-55
2022/02/19 02:37:18;;;;;;;0.30;0.20;;;;;;;7.67;61.13;99710.47;4989083;28;20449;-56
2022/02/19 02:39:46;;;;;;;0.53;0.53;;;;;;;7.66;61.09;99712.25;4993553;28;21026;-55
2022/02/19 02:42:17;;;;;;;0.30;0.20;;;;;;;7.61;61.35;99705.38;4993452;28;20461;-55
2022/02/19 02:44:44;;;;;;;0.30;0.20;;;;;;;7.57;61.41;99716.94;4993177;28;20470;-55
2022/02/19 02:47:30;;;;;;;0.30;0.17;;;;;;;7.59;62.03;99715.13;4992988;28;20445;-55
2022/02/19 02:49:57;;;;;;;0.30;0.13;;;;;;;7.56;62.98;99720.50;4993161;28;20488;-55
2022/02/19 02:52:23;;;;;;;0.30;0.17;;;;;;;7.48;62.82;99725.97;4993247;28;20481;-55
2022/02/19 02:54:50;;;;;;;0.30;0.20;;;;;;;7.51;63.72;99732.94;4992822;28;20473;-55
2022/02/19 02:57:16;;;;;;;0.27;0.10;;;;;;;7.51;62.56;99735.59;4980481;28;20845;-55
2022/02/19 02:59:43;;;;;;;0.30;0.20;;;;;;;7.56;62.24;99749.59;4993037;28;20955;-55
2022/02/19 03:02:09;;;;;;;0.30;0.20;;;;;;;7.58;62.53;99747.75;4992879;28;20461;-55
2022/02/19 03:04:36;;;;;;;0.30;0.10;;;;;;;7.48;63.62;99754.19;4992814;28;20470;-55
2022/02/19 03:07:03;;;;;;;0.30;0.10;;;;;;;7.49;63.45;99746.19;4992277;28;20531;-55
2022/02/19 03:09:29;;;;;;;0.30;0.20;;;;;;;7.43;63.56;99763.09;4993070;28;20835;-55
2022/02/19 03:11:56;;;;;;;0.30;0.20;;;;;;;7.45;63.64;99776.28;4992968;28;20446;-55
2022/02/19 03:14:23;;;;;;;0.30;0.20;;;;;;;7.48;64.02;99777.97;4992638;28;20453;-55
2022/02/19 03:16:49;;;;;;;0.30;0.20;;;;;;;7.42;63.94;99792.22;4989795;28;20457;-55
2022/02/19 03:19:16;;;;;;;0.30;0.20;;;;;;;7.37;65.29;99796.75;4992955;28;20484;-55
2022/02/19 03:21:42;;;;;;;0.30;0.20;;;;;;;7.38;65.15;99793.19;4992974;28;20457;-55
2022/02/19 03:24:09;;;;;;;0.30;0.10;;;;;;;7.29;65.48;99796.94;4992697;28;20453;-55
2022/02/19 03:26:40;;;;;;;0.30;0.10;;;;;;;7.26;64.94;99802.25;4982373;28;20520;-56
2022/02/19 03:29:06;;;;;;;0.30;0.20;;;;;;;7.17;64.75;99796.34;4992775;28;20457;-55
2022/02/19 03:31:33;;;;;;;0.30;0.20;;;;;;;7.19;65.31;99808.63;4993328;28;20500;-55
2022/02/19 03:34:00;;;;;;;0.30;0.20;;;;;;;7.11;66.44;99795.56;4996941;28;20449;-55
2022/02/19 03:36:26;;;;;;;0.30;0.20;;;;;;;7.06;67.14;99826.50;4995456;28;20481;-55
2022/02/19 03:38:53;;;;;;;0.30;0.10;;;;;;;7.01;67.49;99835.47;4996689;28;20512;-55
2022/02/19 03:41:20;;;;;;;0.30;0.20;;;;;;;6.96;68.50;99832.88;4995612;28;20457;-55
2022/02/19 03:43:46;;;;;;;0.30;0.20;;;;;;;6.87;68.12;99853.38;4996444;28;20493;-55
2022/02/19 03:46:13;;;;;;;0.30;0.20;;;;;;;6.85;67.74;99840.16;4996196;28;20497;-55
2022/02/19 03:48:40;;;;;;;0.30;0.20;;;;;;;6.85;66.93;99858.66;4996465;28;20453;-55
2022/02/19 03:51:06;;;;;;;0.30;0.20;;;;;;;6.87;67.04;99853.38;4996356;28;20520;-55
2022/02/19 03:53:33;;;;;;;0.30;0.10;;;;;;;6.86;67.92;99867.47;4996520;28;20485;-55
2022/02/19 03:55:59;;;;;;;0.30;0.20;;;;;;;6.77;65.71;99882.59;4996145;28;20519;-54
2022/02/19 03:58:26;;;;;;;0.30;0.20;;;;;;;6.87;65.86;99888.59;4996294;28;20951;-54
2022/02/19 04:00:53;;;;;;;0.30;0.20;;;;;;;6.69;66.93;99903.00;4996315;28;20576;-54
2022/02/19 04:03:20;;;;;;;0.30;0.20;;;;;;;6.78;65.69;99894.91;4996472;28;20449;-55
2022/02/19 04:05:47;;;;;;;2.00;1.17;;;;;;;6.85;66.61;99908.84;4996168;28;20528;-55
2022/02/19 04:08:13;;;;;;;0.30;0.20;;;;;;;6.83;66.12;99913.28;4996096;28;20449;-54
2022/02/19 04:10:40;;;;;;;0.30;0.10;;;;;;;6.78;66.92;99910.75;4996176;28;20453;-54
2022/02/19 04:13:07;;;;;;;0.30;0.20;;;;;;;6.91;65.39;99918.44;4995931;28;20509;-55
2022/02/19 04:15:33;;;;;;;0.30;0.20;;;;;;;6.93;65.73;99917.50;4996221;28;20476;-55
2022/02/19 04:18:00;;;;;;;0.30;0.10;;;;;;;6.90;65.57;99916.69;4995873;28;20453;-55
2022/02/19 04:20:26;;;;;;;0.30;0.20;;;;;;;6.84;66.31;99929.09;4996127;28;20488;-55
2022/02/19 04:22:53;;;;;;;0.30;0.17;;;;;;;6.92;65.90;99936.03;4994982;28;20975;-55
2022/02/19 04:25:20;;;;;;;0.30;0.20;;;;;;;6.96;64.98;99933.28;4995553;28;20502;-54
2022/02/19 04:27:46;;;;;;;0.30;0.10;;;;;;;6.80;66.79;99934.50;4995454;28;20881;-55
2022/02/19 04:30:13;;;;;;;0.30;0.10;;;;;;;6.81;66.09;99934.47;4996074;28;20473;-55
2022/02/19 04:32:40;;;;;;;0.30;0.10;;;;;;;6.83;65.38;99940.56;4995815;28;20460;-55
2022/02/19 04:35:07;;;;;;;0.30;0.20;;;;;;;6.78;66.26;99938.94;4995130;28;20493;-56
2022/02/19 04:37:33;;;;;;;0.30;0.20;;;;;;;6.76;66.02;99943.38;4995789;28;20457;-53
2022/02/19 04:40:00;;;;;;;0.30;0.20;;;;;;;6.69;67.52;99945.25;4995424;28;22529;-53
2022/02/19 04:42:27;;;;;;;0.30;0.20;;;;;;;6.77;67.84;99953.03;4994854;28;20879;-53
2022/02/19 04:44:54;;;;;;;0.30;0.20;;;;;;;6.65;67.65;99956.78;4995654;28;20523;-53
2022/02/19 04:47:20;;;;;;;0.30;0.10;;;;;;;6.60;67.19;99956.00;4995178;28;20924;-53
2022/02/19 04:49:47;;;;;;;0.30;0.10;;;;;;;6.65;66.47;99964.69;4995249;28;21018;-53
2022/02/19 04:52:14;;;;;;;0.30;0.20;;;;;;;6.54;66.75;99961.38;4995297;28;20469;-53
2022/02/19 04:54:41;;;;;;;0.30;0.20;;;;;;;6.58;67.24;99970.09;4995241;28;20477;-53
2022/02/19 04:57:08;;;;;;;0.30;0.20;;;;;;;6.51;66.73;99978.16;4995002;28;20457;-53
2022/02/19 04:59:34;;;;;;;0.30;0.10;;;;;;;6.56;67.22;99980.69;4995421;28;20450;-53
2022/02/19 05:02:01;;;;;;;0.30;0.10;;;;;;;6.40;67.74;99979.22;4995301;28;20511;-53
2022/02/19 05:04:28;;;;;;;0.30;0.10;;;;;;;6.40;68.47;99992.41;4994993;28;20517;-53
2022/02/19 05:06:54;;;;;;;0.20;0.10;;;;;;;6.51;68.59;99985.19;4994756;28;20520;-53
2022/02/19 05:09:21;;;;;;;0.30;0.20;;;;;;;6.48;68.32;99999.31;4995073;28;20458;-53
2022/02/19 05:11:47;;;;;;;0.30;0.20;;;;;;;6.39;68.50;100010.03;4995146;28;20611;-53
2022/02/19 05:14:14;;;;;;;0.30;0.20;;;;;;;6.43;68.30;100008.19;4995135;28;20453;-53
2022/02/19 05:16:40;;;;;;;0.30;0.10;;;;;;;6.33;68.16;100019.81;4994768;28;20508;-53
2022/02/19 05:19:08;;;;;;;0.27;0.17;;;;;;;6.40;68.99;100014.41;4995001;28;20473;-53
2022/02/19 05:21:34;;;;;;;0.30;0.10;;;;;;;6.40;68.85;100018.81;4994906;28;20453;-53
2022/02/19 05:24:06;;;;;;;0.30;0.10;;;;;;;6.42;68.86;100019.66;4994749;28;20878;-53
2022/02/19 05:26:32;;;;;;;0.20;0.20;;;;;;;6.34;69.12;100024.22;4994681;28;20520;-53
2022/02/19 05:28:59;;;;;;;0.30;0.13;;;;;;;6.29;68.36;100023.38;4994780;28;20489;-53
2022/02/19 05:31:25;;;;;;;0.30;0.13;;;;;;;6.36;69.08;100031.19;4994104;28;20523;-53
2022/02/19 05:33:52;;;;;;;0.30;0.17;;;;;;;6.27;68.63;100027.81;4994486;28;20525;-53
2022/02/19 05:36:18;;;;;;;0.20;0.10;;;;;;;6.27;69.01;100026.06;4994247;28;21057;-54
2022/02/19 05:38:45;;;;;;;0.30;0.20;;;;;;;6.31;68.52;100034.81;4994377;28;20845;-53
2022/02/19 05:41:12;;;;;;;0.30;0.20;;;;;;;6.29;68.84;100039.22;4994560;28;20944;-53
2022/02/19 05:43:38;;;;;;;0.30;0.20;;;;;;;6.31;69.20;100050.66;4994529;28;20516;-53
2022/02/19 05:46:05;;;;;;;0.30;0.20;;;;;;;6.27;69.35;100059.50;4994412;28;20493;-53
2022/02/19 05:48:31;;;;;;;0.20;0.20;;;;;;;6.35;69.21;100060.25;4994142;28;20469;-53
2022/02/19 05:50:59;;;;;;;0.20;0.20;;;;;;;6.27;68.74;100064.78;4994336;28;20502;-54
2022/02/19 05:53:25;;;;;;;0.20;0.10;;;;;;;6.17;69.99;100067.56;4994434;28;20508;-53
2022/02/19 05:55:53;;;;;;;0.30;0.17;;;;;;;6.14;69.88;100075.50;4993375;28;20468;-53
2022/02/19 05:58:20;;;;;;;0.20;0.10;;;;;;;6.17;70.31;100070.19;4994113;28;20966;-54
2022/02/19 06:00:47;;;;;;;0.30;0.20;;;;;;;6.19;69.17;100089.53;4994252;28;20486;-53
2022/02/19 06:03:15;;;;;;;0.30;0.20;;;;;;;6.27;69.86;100077.97;4993836;28;20936;-53
2022/02/19 06:05:41;;;;;;;0.20;0.10;;;;;;;6.23;69.97;100083.28;4992097;28;20489;-53
2022/02/19 06:08:08;;;;;;;0.30;0.13;;;;;;;6.14;70.26;100087.81;4993887;28;20489;-53
2022/02/19 06:10:39;;;;;;;0.30;0.20;;;;;;;6.17;69.68;100103.63;4994111;28;20449;-53
2022/02/19 06:13:06;;;;;;;0.30;0.20;;;;;;;6.15;69.01;100122.09;4993424;28;20453;-53
2022/02/19 06:15:33;;;;;;;0.30;0.17;;;;;;;6.23;69.21;100114.09;4993751;28;20470;-53
2022/02/19 06:17:59;;;;;;;0.20;0.10;;;;;;;6.14;70.49;100117.72;4993411;28;20492;-53
2022/02/19 06:20:26;;;;;;;0.30;0.20;;;;;;;6.13;69.34;100130.94;4993427;28;20485;-52
2022/02/19 06:22:52;;;;;;;0.30;0.17;;;;;;;6.08;69.34;100132.78;4993411;28;20481;-52
2022/02/19 06:25:19;;;;;;;0.23;0.20;;;;;;;6.07;69.80;100124.00;4993790;28;20528;-53
2022/02/19 06:27:46;;;;;;;0.30;0.20;;;;;;;6.16;69.62;100141.44;4993695;28;20493;-53
2022/02/19 06:30:13;;;;;;;0.30;0.10;;;;;;;6.12;70.13;100148.53;4993425;28;20516;-53
2022/02/19 06:32:41;;;;;;;0.30;0.20;;;;;;;6.23;69.51;100158.97;4993463;28;20450;-53
2022/02/19 06:35:09;;;;;;;0.20;0.10;;;;;;;6.24;69.61;100158.06;4993285;28;20509;-53
2022/02/19 06:37:45;;;;;;;0.30;0.10;;;;;;;6.33;70.94;100171.16;4993899;28;20449;-53
2022/02/19 06:40:13;;;;;;;0.27;0.10;;;;;;;6.19;69.93;100171.34;4992602;28;20452;-58
2022/02/19 06:42:41;;;;;;;0.20;0.10;;;;;;;6.32;69.81;100187.88;4993473;28;20485;-54
2022/02/19 06:45:09;;;;;;;0.20;0.20;;;;;;;6.34;70.39;100190.50;4994909;28;20573;-54
2022/02/19 06:47:37;;;;;;;0.30;0.10;;;;;;;6.28;69.68;100191.44;4993433;28;20968;-54
2022/02/19 06:50:06;;;;;;;0.20;0.10;;;;;;;6.33;69.34;100209.88;4993227;28;20955;-54
2022/02/19 06:52:32;;;;;;;0.20;0.10;;;;;;;6.28;69.58;100209.03;4993287;28;20449;-54
2022/02/19 06:54:59;;;;;;;0.20;0.10;;;;;;;6.27;69.92;100213.44;4993255;28;20473;-54
2022/02/19 06:57:25;;;;;;;0.20;0.20;;;;;;;6.32;69.99;100216.91;4996538;28;20494;-54
2022/02/19 06:59:52;;;;;;;0.20;0.13;;;;;;;6.38;70.23;100226.50;4998896;28;20453;-55
2022/02/19 07:02:19;;;;;;;0.20;0.10;;;;;;;6.30;69.74;100228.38;4993465;28;20453;-55
2022/02/19 07:04:46;;;;;;;0.20;0.10;;;;;;;6.31;69.62;100246.84;4993475;28;20469;-55
2022/02/19 07:07:14;;;;;;;0.30;0.20;;;;;;;6.26;69.67;100256.56;4992982;28;20500;-54
2022/02/19 07:09:41;;;;;;;0.20;0.20;;;;;;;6.30;70.64;100254.75;4992784;28;20488;-54
2022/02/19 07:12:08;;;;;;;2.70;2.50;;;;;;;6.35;71.02;100258.25;4994167;28;20485;-55
2022/02/19 07:14:35;;;;;;;0.20;0.20;;;;;;;6.34;69.86;100259.13;4992872;28;20850;-54
2022/02/19 07:17:05;;;;;;;0.30;0.10;;;;;;;6.40;68.70;100269.59;4992865;28;20480;-54
2022/02/19 07:19:34;;;;;;;0.30;0.20;;;;;;;6.44;69.68;100272.22;4992631;28;20468;-54
2022/02/19 07:22:02;;;;;;;0.30;0.20;;;;;;;6.29;69.30;100271.50;4982566;28;20512;-54
2022/02/19 07:24:29;;;;;;;0.30;0.10;;;;;;;6.36;69.56;100275.81;4992405;28;20508;-54
2022/02/19 07:26:56;;;;;;;0.20;0.10;;;;;;;6.39;69.07;100273.13;4992743;28;20990;-55
2022/02/19 07:29:24;;;;;;;0.20;0.10;;;;;;;6.48;68.65;100271.28;4992301;28;20449;-54
2022/02/19 07:31:50;;;;;;;0.30;0.20;;;;;;;6.38;69.32;100290.75;4992722;28;20449;-54
2022/02/19 07:34:17;;;;;;;0.27;0.10;;;;;;;6.44;69.30;100298.63;4991969;28;20489;-55
2022/02/19 07:36:44;;;;;;;0.20;0.10;;;;;;;6.65;68.65;100300.09;4992722;28;20454;-55
2022/02/19 07:39:11;;;;;;;0.30;0.20;;;;;;;6.74;69.17;100304.41;4992138;28;20454;-55
2022/02/19 07:41:38;;;;;;;0.30;0.20;;;;;;;6.66;69.32;100315.06;4992052;28;20504;-55
2022/02/19 07:44:06;;;;;;;0.27;0.10;;;;;;;6.76;68.90;100318.47;4992701;28;20496;-55
2022/02/19 07:46:32;;;;;;;0.30;0.13;;;;;;;6.84;68.13;100311.28;5002519;28;20519;-55
2022/02/19 07:58:18;;;;;;;0.20;0.10;;;;;;;6.68;69.39;100313.25;4993909;28;20911;-55
2022/02/19 08:00:05;;;;;;;0.20;0.13;;;;;;;6.63;68.40;100327.44;4991572;28;20457;-54
2022/02/19 08:02:32;;;;;;;0.20;0.20;;;;;;;6.65;69.67;100333.56;4992544;28;20461;-54
2022/02/19 08:04:58;;;;;;;0.20;0.10;;;;;;;6.73;69.28;100342.28;4991933;28;20635;-55
2022/02/19 08:07:25;;;;;;;0.23;0.20;;;;;;;6.78;68.25;100340.44;4992326;28;20485;-55
2022/02/19 08:09:51;;;;;;;0.30;0.20;;;;;;;6.73;67.08;100343.16;4992247;28;20489;-55
2022/02/19 08:12:18;;;;;;;0.20;0.20;;;;;;;6.77;67.75;100351.91;4994421;28;20829;-54
2022/02/19 08:14:44;;;;;;;0.20;0.20;;;;;;;6.75;67.47;100354.56;4994881;28;20469;-55
2022/02/19 08:17:12;;;;;;;0.20;0.17;;;;;;;6.82;67.45;100361.50;4992501;28;20951;-55
2022/02/19 08:19:38;;;;;;;0.30;0.20;;;;;;;6.98;67.62;100361.31;4995478;28;21025;-55
2022/02/19 08:22:05;;;;;;;0.30;0.20;;;;;;;6.99;68.03;100361.31;4995572;28;20947;-55
2022/02/19 08:24:31;;;;;;;0.30;0.17;;;;;;;7.07;67.47;100370.00;4995779;28;20488;-55
2022/02/19 08:26:58;;;;;;;0.20;0.20;;;;;;;7.18;67.97;100371.66;4995811;28;21005;-55
2022/02/19 08:29:25;;;;;;;0.20;0.20;;;;;;;7.11;66.49;100379.63;4995485;28;20485;-55
2022/02/19 08:31:51;;;;;;;0.20;0.10;;;;;;;7.18;68.27;100375.16;4995829;28;20802;-55
2022/02/19 08:34:18;;;;;;;0.30;0.20;;;;;;;7.15;66.73;100375.22;4995141;28;20489;-55
2022/02/19 08:36:44;;;;;;;0.30;0.20;;;;;;;7.11;67.29;100378.75;4992424;28;20450;-55
2022/02/19 08:39:11;;;;;;;0.30;0.20;;;;;;;7.05;68.04;100378.84;4995358;28;20477;-56
2022/02/19 08:41:38;;;;;;;0.30;0.10;;;;;;;7.08;67.82;100384.09;4994381;28;20458;-54
2022/02/19 08:44:05;;;;;;;0.30;0.10;;;;;;;7.06;67.53;100386.75;4995104;28;20881;-55
2022/02/19 08:46:31;;;;;;;0.30;0.20;;;;;;;7.16;67.88;100389.31;4995446;28;20501;-54
2022/02/19 08:48:58;;;;;;;0.30;0.10;;;;;;;7.23;67.58;100394.47;4994484;28;20457;-54
2022/02/19 08:51:24;;;;;;;0.30;0.20;;;;;;;7.09;68.02;100407.88;4995346;28;20454;-55
2022/02/19 08:53:51;;;;;;;0.30;0.20;;;;;;;7.16;67.86;100403.38;4995070;28;20458;-55
2022/02/19 08:56:18;;;;;;;0.30;0.20;;;;;;;7.16;67.96;100403.38;4995171;28;20473;-55
2022/02/19 08:58:45;;;;;;;0.20;0.10;;;;;;;7.34;68.46;100419.00;4994968;28;20511;-54
2022/02/19 09:01:12;;;;;;;0.30;0.20;;;;;;;7.43;67.36;100408.31;4994934;28;20457;-54
2022/02/19 09:03:38;;;;;;;0.30;0.20;;;;;;;7.46;66.43;100411.81;4995043;28;20523;-55
2022/02/19 09:06:05;;;;;;;0.30;0.20;;;;;;;7.66;66.39;100402.66;4995009;28;20478;-54
2022/02/19 09:08:31;;;;;;;0.30;0.20;;;;;;;7.54;66.41;100409.91;4994780;28;20540;-55
2022/02/19 09:10:58;;;;;;;0.30;0.20;;;;;;;7.69;66.50;100407.06;4992580;28;20562;-54
2022/02/19 09:13:25;;;;;;;0.30;0.20;;;;;;;7.81;65.75;100414.81;4994525;28;20458;-54
2022/02/19 09:15:52;;;;;;;0.30;0.10;;;;;;;7.74;66.54;100413.16;4994631;28;20502;-55
2022/02/19 09:18:19;;;;;;;2.83;1.53;;;;;;;7.92;66.69;100404.91;4994644;28;20875;-55
2022/02/19 09:20:46;;;;;;;0.20;0.20;;;;;;;7.91;66.74;100413.75;4994548;28;20457;-55
2022/02/19 09:23:12;;;;;;;0.30;0.20;;;;;;;8.05;65.64;100416.19;5005884;28;20485;-55
2022/02/19 09:25:39;;;;;;;1.50;1.17;;;;;;;8.12;66.07;100425.78;4994627;28;20827;-55
2022/02/19 09:28:05;;;;;;;0.30;0.20;;;;;;;8.33;64.67;100413.94;4994160;28;20559;-55
2022/02/19 09:30:32;;;;;;;0.30;0.13;;;;;;;8.13;65.45;100422.25;4994348;28;20458;-55
2022/02/19 09:33:00;;;;;;;0.30;0.20;;;;;;;8.02;64.69;100427.69;4994318;28;20457;-55
2022/02/19 09:35:27;;;;;;;0.30;0.20;;;;;;;8.11;64.84;100418.75;4994169;28;20496;-55
2022/02/19 09:37:53;;;;;;;0.30;0.20;;;;;;;8.23;64.97;100421.19;4993884;28;20954;-55
2022/02/19 09:40:20;;;;;;;0.30;0.20;;;;;;;8.02;63.93;100426.81;4994257;28;20878;-55
2022/02/19 09:42:49;;;;;;;0.30;0.20;;;;;;;8.06;63.87;100425.88;4994102;28;20457;-55
2022/02/19 09:45:17;;;;;;;0.30;0.20;;;;;;;7.99;63.44;100411.00;4993975;28;20474;-55
2022/02/19 09:47:44;;;;;;;0.30;0.17;;;;;;;7.88;63.94;100426.16;4993920;28;20488;-54
2022/02/19 09:50:11;;;;;;;0.30;0.17;;;;;;;7.94;64.40;100418.13;4993934;28;20465;-54
2022/02/19 09:52:38;;;;;;;0.27;0.17;;;;;;;7.91;62.88;100437.56;4993861;28;20446;-54
2022/02/19 09:55:07;;;;;;;0.30;0.20;;;;;;;7.84;62.85;100430.63;4995577;28;20456;-55
2022/02/19 09:57:34;;;;;;;0.30;0.20;;;;;;;7.68;63.49;100435.28;4994340;28;20449;-54
2022/02/19 10:00:01;;;;;;;0.30;0.10;;;;;;;7.73;61.77;100438.72;4993978;28;21017;-54
2022/02/19 10:02:34;;;;;;;0.30;0.10;;;;;;;7.91;62.14;100448.16;4993739;28;20493;-54
2022/02/19 10:05:15;;;;;;;0.30;0.20;;;;;;;7.81;64.14;100448.31;4993534;28;20479;-54
2022/02/19 10:07:43;;;;;;;0.30;0.20;;;;;;;7.84;64.25;100449.16;4992315;28;21150;-54
2022/02/19 10:10:24;;;;;;;0.30;0.13;;;;;;;7.66;63.21;100442.34;4994038;28;20839;-54
2022/02/19 10:12:50;;;;;;;0.30;0.20;;;;;;;7.80;63.97;100442.16;4994057;28;20519;-54
2022/02/19 10:15:17;;;;;;;0.30;0.20;;;;;;;7.70;64.10;100448.50;4994082;28;20525;-54
2022/02/19 10:17:48;;;;;;;0.30;0.20;;;;;;;7.86;64.75;100452.66;4991858;28;20446;-54
2022/02/19 10:20:17;;;;;;;0.30;0.20;;;;;;;7.97;65.31;100456.03;4993657;28;20807;-54
2022/02/19 10:22:44;;;;;;;0.30;0.20;;;;;;;8.08;64.27;100465.53;4989971;28;20449;-54
2022/02/19 10:25:14;;;;;;;0.30;0.20;;;;;;;8.18;63.57;100465.38;4993896;28;20465;-54
2022/02/19 10:27:54;;;;;;;0.30;0.17;;;;;;;8.11;63.42;100463.75;4993041;28;20849;-53
2022/02/19 10:30:24;;;;;;;0.30;0.20;;;;;;;8.24;64.08;100470.59;4993661;28;20511;-53
2022/02/19 10:32:54;;;;;;;0.30;0.20;;;;;;;8.36;63.89;100466.91;4993485;28;20963;-53
2022/02/19 10:35:28;;;;;;;0.30;0.20;;;;;;;8.38;63.72;100474.84;4993289;28;20520;-53
2022/02/19 10:37:56;;;;;;;0.30;0.20;;;;;;;8.44;62.87;100469.41;5028988;22;20641;-48
2022/02/19 10:40:38;;;;;;;0.30;0.10;;;;;;;8.43;62.24;100479.13;5017969;28;20452;-47
2022/02/19 10:43:11;;;;;;;0.30;0.20;;;;;;;8.75;61.77;100470.63;5023305;28;20997;-47
2022/02/19 10:45:52;;;;;;;0.30;0.20;;;;;;;8.83;61.65;100470.50;5032305;28;20443;-47
2022/02/19 10:48:27;;;;;;;0.30;0.20;;;;;;;8.74;61.96;100473.31;5016576;28;20615;-48
2022/02/19 10:51:15;;;;;;;0.30;0.20;;;;;;;8.57;61.24;100474.47;5020377;28;20502;-49
2022/02/19 10:53:49;;;;;;;0.30;0.20;;;;;;;8.50;62.97;100475.50;5029332;28;20445;-49
2022/02/19 10:56:17;;;;;;;0.30;0.20;;;;;;;8.50;62.55;100470.19;5015684;28;20941;-49
2022/02/19 10:59:07;;;;;;;0.30;0.20;;;;;;;8.41;62.58;100473.00;5032345;28;20487;-48
2022/02/19 11:01:45;;;;;;;0.30;0.20;;;;;;;8.15;63.83;100476.03;5032158;28;20932;-49
2022/02/19 11:04:14;;;;;;;0.30;0.20;;;;;;;8.02;65.25;100467.41;5023400;28;21002;-48
2022/02/19 11:06:42;;;;;;;0.30;0.20;;;;;;;8.39;65.86;100468.63;5030901;28;20979;-48
2022/02/19 11:09:10;;;;;;;0.30;0.20;;;;;;;8.63;64.95;100462.00;5021791;28;20516;-47
2022/02/19 11:11:42;;;;;;;0.30;0.20;;;;;;;8.46;64.82;100455.25;5012564;28;20954;-49
2022/02/19 11:14:14;;;;;;;0.30;0.20;;;;;;;8.33;66.48;100459.84;5020094;28;20484;-47
2022/02/19 11:16:41;;;;;;;0.30;0.20;;;;;;;8.29;65.95;100454.63;5031334;28;20533;-48
2022/02/19 11:19:14;;;;;;;0.30;0.20;;;;;;;8.37;65.55;100463.38;5031843;28;20956;-48
2022/02/19 11:21:40;;;;;;;0.30;0.20;;;;;;;8.77;65.48;100452.03;5019197;28;20510;-49
2022/02/19 11:24:09;;;;;;;0.30;0.20;;;;;;;8.98;64.58;100453.41;5018604;28;20527;-50
2022/02/19 11:26:37;;;;;;;0.30;0.20;;;;;;;8.97;63.78;100454.31;5017654;28;20542;-48
2022/02/19 11:29:11;;;;;;;0.30;0.20;;;;;;;8.99;62.30;100448.09;5032007;28;20550;-48
2022/02/19 11:31:40;;;;;;;0.30;0.20;;;;;;;9.11;63.17;100431.94;5032253;28;20473;-47
2022/02/19 11:34:09;;;;;;;0.30;0.20;;;;;;;9.24;62.50;100437.00;5025995;28;20895;-48
2022/02/19 11:36:35;;;;;;;0.30;0.20;;;;;;;9.77;62.82;100426.06;5026925;28;20924;-48
2022/02/19 11:39:05;;;;;;;0.30;0.20;;;;;;;9.46;59.57;100436.50;5031739;28;20444;-49
2022/02/19 11:41:40;;;;;;;0.30;0.20;;;;;;;9.43;62.55;100428.59;5032142;28;20559;-49
2022/02/19 11:44:27;;;;;;;0.30;0.20;;;;;;;9.35;62.07;100425.25;5031439;28;20447;-47
2022/02/19 11:46:56;;;;;;;0.30;0.20;;;;;;;9.60;61.74;100412.31;5029392;28;20546;-49